Terminal Aerodrome Forecast
Issued by NWS Los Angeles, CA

Home | Current Version | Previous Version | Text Only | Print | Product List | Glossary On
Versions: 1 2 3 4 5 6 7 8 9 10 11 12 13 14 15 16 17 18 19 20
775
FTUS46 KLOX 301728
TAFSMX
TAF
KSMX 301728Z 3018/0118 31008KT 3SM BR OVC003
     FM301900 31012KT 6SM HZ SCT004
     FM302100 32015G20KT P6SM SKC
     FM010200 31010KT P6SM SKC
     FM010400 31006KT 1SM BR OVC003
     FM010700 VRB03KT 1/2SM FG VV002
     FM011400 33006KT 1SM BR OVC003=

USA.gov is the U.S. government's official web portal to all federal, state and local government web resources and services.